Time;durP1;ratioP1;P1;durP2;ratioP2;P2;SDS_P1;SDS_P2;PMS_P1;PMS_P2;Temp;Humidity;BMP_temperature;BMP_pressure;BME280_temperature;BME280_humidity;BME280_pressure;Samples;Min_cycle;Max_cycle;Signal;HPM_P1;HPM_P2
2023/09/08 00:01:16;;;;;;;11.15;7.85;;;19.50;99.90;;;;;;5090481;28;20223;-69
2023/09/08 00:04:07;;;;;;;9.40;7.65;;;19.50;99.90;;;;;;5098549;28;20280;-70
2023/09/08 00:06:56;;;;;;;11.57;7.68;;;19.40;99.90;;;;;;5090184;28;20224;-70
2023/09/08 00:09:45;;;;;;;12.82;7.50;;;19.40;99.90;;;;;;5093084;28;20250;-70
2023/09/08 00:12:34;;;;;;;9.30;6.88;;;19.40;99.90;;;;;;5092880;28;20226;-70
2023/09/08 00:15:23;;;;;;;15.90;7.70;;;19.40;99.90;;;;;;5094426;28;20230;-70
2023/09/08 00:18:11;;;;;;;9.73;7.30;;;19.30;99.90;;;;;;5095150;28;20724;-70
2023/09/08 00:21:03;;;;;;;12.13;7.80;;;19.30;99.90;;;;;;5095348;28;20546;-71
2023/09/08 00:23:52;;;;;;;12.80;7.97;;;19.30;99.90;;;;;;5093573;28;20937;-71
2023/09/08 00:26:41;;;;;;;11.65;7.70;;;19.30;99.90;;;;;;5089622;28;20245;-72
2023/09/08 00:29:33;;;;;;;10.85;7.30;;;19.20;99.90;;;;;;5096774;28;20221;-71
2023/09/08 00:32:22;;;;;;;9.55;7.55;;;19.20;99.90;;;;;;5095225;28;20222;-72
2023/09/08 00:35:13;;;;;;;10.88;7.88;;;19.20;99.90;;;;;;5095687;28;20215;-70
2023/09/08 00:38:04;;;;;;;11.68;7.85;;;19.20;99.90;;;;;;5074282;28;20306;-71
2023/09/08 00:40:53;;;;;;;13.60;8.00;;;19.00;99.90;;;;;;5084666;28;20260;-71
2023/09/08 00:43:42;;;;;;;9.77;7.53;;;19.10;99.90;;;;;;5075705;28;20623;-70
2023/09/08 00:46:32;;;;;;;11.68;8.20;;;19.00;99.90;;;;;;5080362;28;20212;-70
2023/09/08 00:49:21;;;;;;;12.80;8.30;;;19.10;99.90;;;;;;5061278;28;20216;-71
2023/09/08 00:52:10;;;;;;;9.23;7.88;;;19.10;99.90;;;;;;5078987;28;20710;-73
2023/09/08 00:55:01;;;;;;;9.60;7.43;;;19.00;99.90;;;;;;5080675;28;20786;-72
2023/09/08 00:57:50;;;;;;;12.82;7.95;;;19.10;99.90;;;;;;5055651;28;20636;-70
2023/09/08 01:00:39;;;;;;;9.35;7.85;;;19.20;99.90;;;;;;5073988;28;20234;-69
2023/09/08 01:03:28;;;;;;;10.80;8.23;;;19.00;99.90;;;;;;5080950;28;20223;-70
2023/09/08 01:06:18;;;;;;;11.55;8.38;;;19.10;99.90;;;;;;5067385;28;20220;-70
2023/09/08 01:09:07;;;;;;;11.20;8.20;;;19.00;99.90;;;;;;5088914;28;20226;-70
2023/09/08 01:12:01;;;;;;;12.27;8.27;;;19.00;99.90;;;;;;5084949;28;20310;-69
2023/09/08 01:14:51;;;;;;;9.63;7.85;;;19.00;99.90;;;;;;5082967;28;20228;-70
2023/09/08 01:17:40;;;;;;;9.95;7.82;;;18.90;99.90;;;;;;5060077;28;20258;-71
2023/09/08 01:20:36;;;;;;;11.07;7.72;;;18.90;99.90;;;;;;5068943;28;20231;-72
2023/09/08 01:23:33;;;;;;;10.00;7.85;;;18.90;99.90;;;;;;5077136;28;20231;-71
2023/09/08 01:26:28;;;;;;;10.38;8.13;;;18.90;99.90;;;;;;5080283;28;20778;-70
2023/09/08 01:29:17;;;;;;;11.32;8.13;;;18.80;99.90;;;;;;5076002;28;20223;-70
2023/09/08 01:32:07;;;;;;;11.35;8.05;;;18.60;99.90;;;;;;5081043;28;20801;-71
2023/09/08 01:34:58;;;;;;;9.57;7.53;;;18.60;99.90;;;;;;5081325;28;20280;-69
2023/09/08 01:37:49;;;;;;;9.02;7.70;;;18.60;99.90;;;;;;5071066;28;20273;-71
2023/09/08 01:40:38;;;;;;;12.40;8.50;;;18.60;99.90;;;;;;5058243;28;20231;-70
2023/09/08 01:43:28;;;;;;;9.07;7.78;;;18.60;99.90;;;;;;5064967;28;20227;-70
2023/09/08 01:46:17;;;;;;;11.23;7.95;;;18.50;99.90;;;;;;5059373;28;20231;-71
2023/09/08 01:49:06;;;;;;;10.25;7.80;;;18.40;99.90;;;;;;5053943;28;20227;-72
2023/09/08 01:51:58;;;;;;;9.40;7.82;;;18.40;99.90;;;;;;5065836;28;20239;-72
2023/09/08 01:54:47;;;;;;;9.77;7.88;;;18.50;99.90;;;;;;5078067;28;20389;-72
2023/09/08 01:57:36;;;;;;;9.77;7.72;;;18.50;99.90;;;;;;5054025;28;20699;-71
2023/09/08 02:00:26;;;;;;;12.52;8.00;;;18.50;99.90;;;;;;5080609;28;20702;-73
2023/09/08 02:03:16;;;;;;;11.52;8.15;;;18.40;99.90;;;;;;5075982;28;20235;-72
2023/09/08 02:06:05;;;;;;;9.80;8.20;;;18.50;99.90;;;;;;5043104;28;20219;-70
2023/09/08 02:08:54;;;;;;;11.00;8.27;;;18.40;99.90;;;;;;5078792;28;20235;-72
2023/09/08 02:11:43;;;;;;;11.50;8.52;;;18.30;99.90;;;;;;5066176;28;20224;-72
2023/09/08 02:14:32;;;;;;;12.65;7.72;;;18.40;99.90;;;;;;5073849;28;20852;-71
2023/09/08 02:17:22;;;;;;;11.07;8.27;;;18.40;99.90;;;;;;5068426;28;20211;-71
2023/09/08 02:20:12;;;;;;;9.50;7.47;;;18.40;99.90;;;;;;5079440;28;20655;-72
2023/09/08 02:23:06;;;;;;;13.40;8.05;;;18.30;99.90;;;;;;5066427;28;21040;-71
2023/09/08 02:25:55;;;;;;;11.13;8.07;;;18.30;99.90;;;;;;5067709;28;20630;-71
2023/09/08 02:28:48;;;;;;;12.05;7.95;;;18.30;99.90;;;;;;5059881;28;20495;-71
2023/09/08 02:31:37;;;;;;;9.18;8.20;;;18.30;99.90;;;;;;5056633;28;20648;-71
2023/09/08 02:34:29;;;;;;;12.70;7.75;;;18.40;99.90;;;;;;5063657;28;20246;-71
2023/09/08 02:37:19;;;;;;;13.77;8.00;;;18.30;99.90;;;;;;5078552;28;20234;-70
2023/09/08 02:40:08;;;;;;;10.18;7.70;;;18.40;99.90;;;;;;5063778;28;20584;-72
2023/09/08 02:42:59;;;;;;;10.23;7.57;;;18.40;99.90;;;;;;5055352;28;20250;-71
2023/09/08 02:45:49;;;;;;;11.85;7.47;;;18.30;99.90;;;;;;5060160;28;20243;-71
2023/09/08 02:48:39;;;;;;;11.52;8.27;;;18.30;99.90;;;;;;5057012;28;20227;-69
2023/09/08 02:51:29;;;;;;;12.57;8.18;;;18.20;99.90;;;;;;5066155;28;20899;-70
2023/09/08 02:54:18;;;;;;;10.50;7.68;;;18.30;99.90;;;;;;5038340;28;20247;-70
2023/09/08 02:57:07;;;;;;;9.88;7.55;;;18.40;99.90;;;;;;5048364;28;20620;-71
2023/09/08 02:59:56;;;;;;;11.93;8.35;;;18.30;99.90;;;;;;5059964;28;20311;-70
2023/09/08 03:02:45;;;;;;;12.30;8.32;;;18.30;99.90;;;;;;5050699;28;20718;-70
2023/09/08 03:05:34;;;;;;;9.85;7.70;;;18.30;99.90;;;;;;5057914;28;20223;-71
2023/09/08 03:08:25;;;;;;;13.00;8.27;;;18.20;99.90;;;;;;5074057;28;20236;-70
2023/09/08 03:11:14;;;;;;;10.93;8.38;;;18.30;99.90;;;;;;5055917;28;20247;-70
2023/09/08 03:14:03;;;;;;;12.00;7.88;;;18.30;99.90;;;;;;5074886;28;20223;-70
2023/09/08 03:16:52;;;;;;;11.85;7.88;;;18.20;99.90;;;;;;5059509;28;20223;-70
2023/09/08 03:19:41;;;;;;;15.32;7.80;;;18.30;99.90;;;;;;5060064;28;20215;-70
2023/09/08 03:22:29;;;;;;;16.77;8.50;;;18.20;99.90;;;;;;5071994;28;20350;-71
2023/09/08 03:25:20;;;;;;;11.60;7.93;;;18.20;99.90;;;;;;5072320;28;20215;-73
2023/09/08 03:28:09;;;;;;;10.77;8.20;;;18.10;99.90;;;;;;5056855;28;20228;-71
2023/09/08 03:30:59;;;;;;;13.18;8.82;;;18.00;99.90;;;;;;5071564;28;20216;-72
2023/09/08 03:33:47;;;;;;;13.52;8.48;;;18.00;99.90;;;;;;5059194;28;20232;-71
2023/09/08 03:36:36;;;;;;;9.15;7.95;;;18.00;99.90;;;;;;5078645;28;20603;-71
2023/09/08 03:39:25;;;;;;;12.70;8.68;;;18.10;99.90;;;;;;5062041;28;20227;-70
2023/09/08 03:42:15;;;;;;;11.77;8.30;;;18.00;99.90;;;;;;5060185;28;20954;-71
2023/09/08 03:45:05;;;;;;;13.60;8.30;;;17.90;99.90;;;;;;5072762;28;20326;-72
2023/09/08 03:47:54;;;;;;;10.55;8.45;;;18.00;99.90;;;;;;5063974;28;20223;-70
2023/09/08 03:50:45;;;;;;;14.07;8.38;;;17.90;99.90;;;;;;5070206;28;20236;-70
2023/09/08 03:53:34;;;;;;;15.95;8.60;;;17.80;99.90;;;;;;5056190;28;20226;-71
2023/09/08 03:56:23;;;;;;;17.08;8.88;;;17.70;99.90;;;;;;5061340;28;20315;-71
2023/09/08 03:59:13;;;;;;;14.10;8.38;;;17.80;99.90;;;;;;5075958;28;20231;-72
2023/09/08 04:02:02;;;;;;;11.20;8.10;;;17.80;99.90;;;;;;5062891;28;20297;-73
2023/09/08 04:04:51;;;;;;;14.48;8.40;;;17.80;99.90;;;;;;5061162;28;20227;-72
2023/09/08 04:07:40;;;;;;;14.20;8.23;;;17.90;99.90;;;;;;5075331;28;20247;-73
2023/09/08 04:10:29;;;;;;;12.95;8.07;;;17.90;99.90;;;;;;5072967;28;20344;-72
2023/09/08 04:13:18;;;;;;;9.98;8.00;;;17.90;99.90;;;;;;5074480;28;20230;-74
2023/09/08 04:16:09;;;;;;;14.43;9.25;;;17.80;99.90;;;;;;5067921;28;20343;-73
2023/09/08 04:19:01;;;;;;;11.30;8.48;;;17.80;99.90;;;;;;5049045;28;20235;-72
2023/09/08 04:21:50;;;;;;;11.20;9.15;;;17.80;99.90;;;;;;5055337;28;20251;-71
2023/09/08 04:24:39;;;;;;;16.08;9.18;;;17.80;99.90;;;;;;5051319;28;20305;-71
2023/09/08 04:27:28;;;;;;;13.20;9.07;;;17.80;99.90;;;;;;5052952;28;20805;-70
2023/09/08 04:30:17;;;;;;;12.77;8.65;;;17.80;99.90;;;;;;5057766;28;20227;-72
2023/09/08 04:33:07;;;;;;;13.70;9.10;;;17.80;99.90;;;;;;5042118;28;20219;-73
2023/09/08 04:35:56;;;;;;;12.25;8.98;;;17.80;99.90;;;;;;5050377;28;20227;-72
2023/09/08 04:38:45;;;;;;;12.13;9.02;;;17.90;99.90;;;;;;5067984;28;20228;-70
2023/09/08 04:41:34;;;;;;;10.88;8.98;;;17.80;99.90;;;;;;5060524;28;20216;-72
2023/09/08 04:44:23;;;;;;;12.13;9.05;;;17.90;99.90;;;;;;5075125;28;20223;-72
2023/09/08 04:47:12;;;;;;;12.48;8.90;;;18.00;99.90;;;;;;5077125;28;20262;-73
2023/09/08 04:50:03;;;;;;;12.52;8.98;;;18.00;99.90;;;;;;5052985;28;20236;-71
2023/09/08 04:52:52;;;;;;;13.88;9.32;;;18.00;99.90;;;;;;5072303;28;20690;-73
2023/09/08 04:55:41;;;;;;;11.82;9.10;;;18.10;99.90;;;;;;5076300;28;20238;-71
2023/09/08 04:58:31;;;;;;;12.23;9.05;;;18.20;99.90;;;;;;5063284;28;20272;-69
2023/09/08 05:01:21;;;;;;;11.40;8.93;;;18.30;99.90;;;;;;5057236;28;20273;-71
2023/09/08 05:04:10;;;;;;;13.77;8.60;;;18.30;99.90;;;;;;5069316;28;20234;-70
2023/09/08 05:07:01;;;;;;;16.33;9.50;;;18.20;99.90;;;;;;5045382;28;20248;-68
2023/09/08 05:09:50;;;;;;;10.98;8.73;;;18.30;99.90;;;;;;5056419;28;20220;-71
2023/09/08 05:12:39;;;;;;;17.92;9.82;;;18.40;99.90;;;;;;5041920;28;20223;-70
2023/09/08 05:15:30;;;;;;;14.43;9.45;;;18.40;99.90;;;;;;5059677;28;20212;-70
2023/09/08 05:18:25;;;;;;;14.73;9.38;;;18.40;99.90;;;;;;5049509;28;20220;-71
2023/09/08 05:21:15;;;;;;;12.95;9.75;;;18.50;99.90;;;;;;5049175;28;20223;-71
2023/09/08 05:24:06;;;;;;;14.10;10.00;;;18.50;99.90;;;;;;5063971;28;20224;-71
2023/09/08 05:26:55;;;;;;;13.00;9.35;;;18.50;99.90;;;;;;5063464;28;20239;-71
2023/09/08 05:29:44;;;;;;;12.52;9.27;;;18.60;99.90;;;;;;5049491;28;20215;-72
2023/09/08 05:32:34;;;;;;;13.57;9.30;;;18.70;99.90;;;;;;5062015;28;20222;-70
2023/09/08 05:35:23;;;;;;;14.82;9.27;;;18.80;99.90;;;;;;5076713;28;20749;-72
2023/09/08 05:38:12;;;;;;;13.68;9.57;;;18.80;99.90;;;;;;5081290;28;20216;-71
2023/09/08 05:41:03;;;;;;;10.77;9.15;;;18.90;99.90;;;;;;5078363;28;20528;-71
2023/09/08 05:43:53;;;;;;;18.77;9.80;;;19.00;99.90;;;;;;5072510;28;20341;-72
2023/09/08 05:46:42;;;;;;;17.70;9.68;;;19.00;99.90;;;;;;5063207;28;20224;-71
2023/09/08 05:49:31;;;;;;;15.30;9.88;;;19.10;99.90;;;;;;5064934;28;20240;-71
2023/09/08 05:52:24;;;;;;;13.57;9.85;;;19.20;99.90;;;;;;5053209;28;20269;-72
2023/09/08 05:55:13;;;;;;;14.60;9.68;;;19.30;99.90;;;;;;5034776;28;20241;-71
2023/09/08 05:58:03;;;;;;;12.43;9.45;;;19.30;99.90;;;;;;5056400;28;20216;-72
2023/09/08 06:00:53;;;;;;;11.18;9.98;;;19.40;99.90;;;;;;5076243;28;20232;-71
2023/09/08 06:03:42;;;;;;;15.68;9.85;;;19.40;99.90;;;;;;5061380;28;20962;-73
2023/09/08 06:06:32;;;;;;;12.80;10.02;;;19.40;99.90;;;;;;5063649;28;20339;-71
2023/09/08 06:09:21;;;;;;;12.48;9.95;;;19.60;99.90;;;;;;5080450;28;20212;-69
2023/09/08 06:12:10;;;;;;;16.00;10.40;;;19.60;99.90;;;;;;5059045;28;20232;-71
2023/09/08 06:15:03;;;;;;;12.98;9.63;;;20.00;99.90;;;;;;5058002;28;20255;-70
2023/09/08 06:17:52;;;;;;;14.50;10.15;;;20.50;99.90;;;;;;5053921;28;20288;-72
2023/09/08 06:20:46;;;;;;;20.08;10.50;;;20.60;99.90;;;;;;5061897;28;20314;-71
2023/09/08 06:23:36;;;;;;;17.13;10.27;;;20.50;99.90;;;;;;5060150;28;20239;-75
2023/09/08 06:26:26;;;;;;;18.20;10.80;;;20.60;99.90;;;;;;5075895;28;20564;-72
2023/09/08 06:29:15;;;;;;;16.52;11.27;;;20.60;99.90;;;;;;5059470;28;20630;-72
2023/09/08 06:32:06;;;;;;;15.45;9.98;;;20.60;99.90;;;;;;5075842;28;20236;-74
2023/09/08 06:34:55;;;;;;;17.80;10.32;;;20.60;99.90;;;;;;5067460;28;20223;-71
2023/09/08 06:37:44;;;;;;;15.65;10.18;;;20.60;99.90;;;;;;5065550;28;20244;-72
2023/09/08 06:40:33;;;;;;;15.35;9.85;;;20.70;99.90;;;;;;5068720;28;20218;-73
2023/09/08 06:43:22;;;;;;;13.10;9.85;;;20.70;99.90;;;;;;5058999;28;20277;-72
2023/09/08 06:46:18;;;;;;;20.08;9.82;;;20.80;99.90;;;;;;5079609;28;20646;-72
2023/09/08 06:49:09;;;;;;;19.70;10.38;;;20.80;99.90;;;;;;5058585;28;20217;-74
2023/09/08 06:52:01;;;;;;;20.38;10.90;;;20.90;99.90;;;;;;5071450;28;20373;-75
2023/09/08 06:54:51;;;;;;;44.63;12.68;;;20.90;99.90;;;;;;5077496;28;20285;-74
2023/09/08 06:57:40;;;;;;;33.53;11.65;;;21.00;99.90;;;;;;5066444;28;20227;-74
2023/09/08 07:00:30;;;;;;;15.38;9.70;;;21.30;99.90;;;;;;5071366;28;20224;-75
2023/09/08 07:03:20;;;;;;;31.38;10.27;;;21.40;99.90;;;;;;5062427;28;20262;-76
2023/09/08 07:06:11;;;;;;;19.92;9.63;;;21.50;99.90;;;;;;5063610;28;20227;-73
2023/09/08 07:09:00;;;;;;;15.05;9.27;;;21.80;99.90;;;;;;5075608;28;20220;-76
2023/09/08 07:11:50;;;;;;;14.30;8.73;;;21.80;99.90;;;;;;5060807;28;20238;-75
2023/09/08 07:14:40;;;;;;;13.27;8.68;;;22.00;99.90;;;;;;5061984;28;20726;-73
2023/09/08 07:17:28;;;;;;;13.98;9.32;;;22.10;99.90;;;;;;5063829;28;20401;-75
2023/09/08 07:20:18;;;;;;;13.32;8.95;;;22.30;99.90;;;;;;5074729;28;20220;-72
2023/09/08 07:23:09;;;;;;;16.33;9.18;;;22.40;99.90;;;;;;5073118;28;20224;-72
2023/09/08 07:25:57;;;;;;;13.65;9.45;;;22.50;99.90;;;;;;5068546;28;20737;-72
2023/09/08 07:28:50;;;;;;;17.13;9.13;;;22.70;99.90;;;;;;5065936;28;20286;-73
2023/09/08 07:31:41;;;;;;;13.63;9.23;;;23.00;99.90;;;;;;5070804;28;20285;-73
2023/09/08 07:34:30;;;;;;;12.48;8.65;;;22.90;99.90;;;;;;5078712;28;20285;-73
2023/09/08 07:37:19;;;;;;;11.82;8.70;;;23.10;99.90;;;;;;5075519;28;20654;-72
2023/09/08 07:40:11;;;;;;;17.23;9.05;;;23.20;99.90;;;;;;5073912;28;20216;-74
2023/09/08 07:43:00;;;;;;;23.35;11.32;;;23.30;99.90;;;;;;5079025;28;20219;-74
2023/09/08 07:45:49;;;;;;;15.73;9.02;;;23.30;99.90;;;;;;5077732;28;20243;-74
2023/09/08 07:48:38;;;;;;;11.82;9.23;;;23.40;99.90;;;;;;5072282;28;20227;-73
2023/09/08 07:51:30;;;;;;;12.30;9.20;;;23.50;99.90;;;;;;5075929;28;20227;-76
2023/09/08 07:54:20;;;;;;;11.73;8.50;;;23.70;99.90;;;;;;5079499;28;20231;-75
2023/09/08 07:57:10;;;;;;;18.67;8.85;;;23.90;99.90;;;;;;5060779;28;20231;-74
2023/09/08 07:59:59;;;;;;;13.65;8.52;;;24.10;99.90;;;;;;5059070;28;20227;-75
2023/09/08 08:02:49;;;;;;;10.65;8.52;;;24.40;99.90;;;;;;5080377;28;20223;-74
2023/09/08 08:05:38;;;;;;;12.52;7.82;;;24.50;99.90;;;;;;5060272;28;20239;-73
2023/09/08 08:08:27;;;;;;;12.45;8.40;;;24.60;99.90;;;;;;5084124;28;20692;-70
2023/09/08 08:11:17;;;;;;;11.70;8.93;;;25.00;99.90;;;;;;5066861;28;20875;-71
2023/09/08 08:14:08;;;;;;;18.20;9.45;;;25.20;99.90;;;;;;5083622;28;20243;-71
2023/09/08 08:17:00;;;;;;;11.00;8.32;;;25.20;99.90;;;;;;5072841;28;20334;-73
2023/09/08 08:19:49;;;;;;;22.38;9.40;;;25.80;99.90;;;;;;5076091;28;20244;-74
2023/09/08 08:22:38;;;;;;;11.90;8.32;;;26.30;99.90;;;;;;5074824;28;20255;-72
2023/09/08 08:25:27;;;;;;;11.15;8.60;;;26.70;99.90;;;;;;5053836;28;20628;-76
2023/09/08 08:28:16;;;;;;;15.02;8.90;;;27.00;99.90;;;;;;5041685;28;20228;-76
2023/09/08 08:31:07;;;;;;;13.55;8.38;;;27.30;99.90;;;;;;5066665;28;20219;-76
2023/09/08 08:33:56;;;;;;;12.95;7.90;;;27.30;99.90;;;;;;5075633;28;20230;-76
2023/09/08 08:36:47;;;;;;;17.00;8.88;;;27.60;99.90;;;;;;5079439;28;20280;-74
2023/09/08 08:39:36;;;;;;;17.65;8.45;;;28.00;99.90;;;;;;5076636;28;20219;-72
2023/09/08 08:42:31;;;;;;;13.05;9.05;;;28.30;99.90;;;;;;5043326;28;20220;-78
2023/09/08 08:45:23;;;;;;;16.42;8.52;;;28.30;99.90;;;;;;5056143;28;20247;-77
2023/09/08 08:48:15;;;;;;;14.45;8.10;;;28.60;99.90;;;;;;5046575;28;20247;-75
2023/09/08 08:51:05;;;;;;;14.50;8.30;;;28.80;99.90;;;;;;5059203;28;20228;-78
2023/09/08 08:53:54;;;;;;;15.48;8.40;;;28.80;99.90;;;;;;5043978;28;20223;-78
2023/09/08 08:56:44;;;;;;;13.63;8.45;;;28.80;99.90;;;;;;5067571;28;20223;-76
2023/09/08 08:59:33;;;;;;;15.18;8.52;;;28.90;99.90;;;;;;5074865;28;20319;-76
2023/09/08 09:02:26;;;;;;;14.05;10.07;;;29.30;99.90;;;;;;5079469;28;20227;-76
2023/09/08 09:05:17;;;;;;;16.42;9.15;;;29.50;99.90;;;;;;5080817;28;20215;-72
2023/09/08 09:08:07;;;;;;;11.27;8.55;;;29.00;99.90;;;;;;5080401;28;20227;-75
2023/09/08 09:10:56;;;;;;;13.52;8.82;;;28.90;99.90;;;;;;5073702;28;20330;-75
2023/09/08 09:13:48;;;;;;;15.52;8.25;;;28.70;99.90;;;;;;5075505;28;20234;-77
2023/09/08 09:16:41;;;;;;;17.73;8.70;;;28.30;99.90;;;;;;5061468;28;20232;-77
2023/09/08 09:19:31;;;;;;;16.20;8.57;;;27.80;99.90;;;;;;5073904;28;20372;-77
2023/09/08 09:22:22;;;;;;;18.75;10.02;;;27.40;99.90;;;;;;5070681;28;20279;-76
2023/09/08 09:25:21;;;;;;;15.77;8.15;;;27.20;99.90;;;;;;5078553;28;20231;-76
2023/09/08 09:28:11;;;;;;;21.98;9.15;;;27.00;99.90;;;;;;5079892;28;20340;-77
2023/09/08 09:31:00;;;;;;;13.48;8.27;;;26.70;99.90;;;;;;5080278;28;20231;-77
2023/09/08 09:34:02;;;;;;;16.85;7.85;;;26.50;99.90;;;;;;5082348;28;21110;-77
2023/09/08 09:36:52;;;;;;;12.23;8.05;;;26.50;99.90;;;;;;5062348;28;20847;-76
2023/09/08 09:39:42;;;;;;;17.30;7.07;;;26.40;99.90;;;;;;5050472;28;20258;-76
2023/09/08 09:42:32;;;;;;;11.77;7.28;;;26.40;99.90;;;;;;5049869;28;20295;-76
2023/09/08 09:45:25;;;;;;;12.68;7.00;;;26.30;99.90;;;;;;5045159;28;20216;-76
2023/09/08 09:48:14;;;;;;;12.15;6.68;;;25.90;99.90;;;;;;5055496;28;20229;-77
2023/09/08 09:51:17;;;;;;;12.40;6.60;;;25.70;99.90;;;;;;5052182;28;20232;-75
2023/09/08 09:54:07;;;;;;;9.90;6.15;;;25.60;99.90;;;;;;5059395;28;20235;-75
2023/09/08 09:56:58;;;;;;;9.88;6.72;;;25.50;99.90;;;;;;5066258;28;20906;-77
2023/09/08 09:59:50;;;;;;;11.93;7.13;;;25.60;99.90;;;;;;5067169;28;20285;-75
2023/09/08 10:02:39;;;;;;;12.77;7.07;;;25.70;99.90;;;;;;5063582;28;20228;-77
2023/09/08 10:05:29;;;;;;;9.98;6.78;;;25.80;99.90;;;;;;5068055;28;20224;-76
2023/09/08 10:08:18;;;;;;;10.35;7.60;;;25.70;99.90;;;;;;5053995;28;20292;-76
2023/09/08 10:11:08;;;;;;;13.43;7.05;;;25.90;99.90;;;;;;5064004;28;20224;-76
2023/09/08 10:14:00;;;;;;;7.57;6.50;;;26.00;99.90;;;;;;5074243;28;20309;-75
2023/09/08 10:16:53;;;;;;;12.18;7.22;;;26.10;99.90;;;;;;5076584;28;20283;-75
2023/09/08 10:19:43;;;;;;;10.65;7.05;;;26.20;99.90;;;;;;5080552;28;20220;-75
2023/09/08 10:22:39;;;;;;;7.88;6.70;;;26.20;99.90;;;;;;5077436;28;20986;-75
2023/09/08 10:25:32;;;;;;;13.40;6.85;;;26.30;99.90;;;;;;5055492;28;20213;-75
2023/09/08 10:28:22;;;;;;;9.50;6.53;;;26.40;99.90;;;;;;5066254;28;20229;-75
2023/09/08 10:31:14;;;;;;;10.25;6.25;;;26.60;99.90;;;;;;5065432;28;20684;-75
2023/09/08 10:34:04;;;;;;;7.10;6.50;;;26.90;99.90;;;;;;5061984;28;20294;-75
2023/09/08 10:36:53;;;;;;;9.02;6.72;;;27.10;99.90;;;;;;5050238;28;20240;-75
2023/09/08 10:39:42;;;;;;;8.75;6.50;;;27.30;99.90;;;;;;5064232;28;20238;-76
2023/09/08 10:42:31;;;;;;;10.30;6.57;;;27.30;99.90;;;;;;5060382;28;20918;-75
2023/09/08 10:45:21;;;;;;;7.25;6.55;;;27.10;99.90;;;;;;5065572;28;20315;-76
2023/09/08 10:48:13;;;;;;;8.43;6.53;;;27.10;99.90;;;;;;5064105;28;20224;-77
2023/09/08 10:51:06;;;;;;;8.98;7.00;;;27.10;99.90;;;;;;5055555;28;20588;-76
2023/09/08 10:53:56;;;;;;;11.25;6.60;;;26.90;99.90;;;;;;5052125;28;20228;-76
2023/09/08 10:56:54;;;;;;;7.15;6.45;;;26.90;99.90;;;;;;5057205;28;20386;-76
2023/09/08 10:59:49;;;;;;;7.63;6.55;;;27.00;99.90;;;;;;5062183;28;20220;-76
2023/09/08 11:02:40;;;;;;;8.52;7.07;;;27.00;99.90;;;;;;5044044;28;20226;-75
2023/09/08 11:05:32;;;;;;;10.18;6.80;;;26.90;99.90;;;;;;5063487;28;20269;-74
2023/09/08 11:08:21;;;;;;;9.35;6.78;;;26.80;94.90;;;;;;5059840;28;20303;-76
2023/09/08 11:11:12;;;;;;;6.93;6.13;;;26.80;96.00;;;;;;5047190;28;20224;-76
2023/09/08 11:14:01;;;;;;;7.50;6.70;;;26.70;99.60;;;;;;5052206;28;20235;-76
2023/09/08 11:16:51;;;;;;;7.28;6.57;;;26.80;93.30;;;;;;5054465;28;20217;-76
2023/09/08 11:19:48;;;;;;;9.07;6.47;;;26.80;86.70;;;;;;5057869;28;20734;-76
2023/09/08 11:22:39;;;;;;;8.73;6.85;;;26.80;90.00;;;;;;5056603;28;20596;-76
2023/09/08 11:25:29;;;;;;;8.68;7.60;;;26.70;95.00;;;;;;5061344;28;20591;-75
2023/09/08 11:28:18;;;;;;;9.32;6.63;;;26.70;99.90;;;;;;5061583;28;20224;-75
2023/09/08 11:31:09;;;;;;;8.20;7.38;;;26.60;99.90;;;;;;5056491;28;20346;-77
2023/09/08 11:34:00;;;;;;;9.68;6.82;;;26.60;99.90;;;;;;5056935;28;20228;-75
2023/09/08 11:36:49;;;;;;;9.13;7.75;;;26.50;99.90;;;;;;5056299;28;20689;-77
2023/09/08 11:39:41;;;;;;;8.48;6.75;;;26.60;99.90;;;;;;5053217;28;20225;-75
2023/09/08 11:42:35;;;;;;;8.63;7.15;;;26.70;99.90;;;;;;5057611;28;20237;-75
2023/09/08 11:45:35;;;;;;;8.13;7.32;;;27.00;99.90;;;;;;5056695;28;20293;-75
2023/09/08 11:52:33;;;;;;;10.02;7.45;;;26.90;99.90;;;;;;5028212;28;20292;-76
2023/09/08 11:55:38;;;;;;;8.38;7.28;;;26.90;99.90;;;;;;5069333;28;20262;-77
2023/09/08 11:58:28;;;;;;;12.40;7.45;;;26.90;99.90;;;;;;5080994;28;20744;-76
2023/09/08 12:01:17;;;;;;;11.25;7.68;;;26.90;99.90;;;;;;5067624;28;20725;-77
2023/09/08 12:04:06;;;;;;;9.60;7.25;;;27.00;99.90;;;;;;5080019;28;20667;-74
2023/09/08 12:06:56;;;;;;;8.15;7.22;;;27.00;94.80;;;;;;5065654;28;20212;-75
2023/09/08 12:09:47;;;;;;;14.90;7.10;;;27.00;99.90;;;;;;5074142;28;20537;-75
2023/09/08 12:12:43;;;;;;;8.07;7.25;;;26.90;99.90;;;;;;5072940;28;20218;-75
2023/09/08 12:15:35;;;;;;;11.93;7.47;;;26.80;99.90;;;;;;5073073;28;20591;-75
2023/09/08 12:18:43;;;;;;;11.85;7.72;;;26.70;99.90;;;;;;5071755;28;20288;-75
2023/09/08 12:21:32;;;;;;;10.18;7.60;;;26.60;99.90;;;;;;5071881;28;20231;-75
2023/09/08 12:24:23;;;;;;;9.68;7.75;;;26.60;99.90;;;;;;5071487;28;20266;-75
2023/09/08 12:27:12;;;;;;;10.20;7.82;;;26.60;99.90;;;;;;5076687;28;20761;-76
2023/09/08 12:30:04;;;;;;;8.95;7.50;;;26.60;99.10;;;;;;5071045;28;20703;-75
2023/09/08 12:32:53;;;;;;;8.82;7.82;;;26.70;99.90;;;;;;5071709;28;20227;-78
2023/09/08 12:35:44;;;;;;;11.57;7.32;;;26.60;99.90;;;;;;5075129;28;20223;-76
2023/09/08 12:38:34;;;;;;;10.35;7.22;;;26.50;99.90;;;;;;5069100;28;20878;-76
2023/09/08 12:41:23;;;;;;;10.23;8.73;;;26.40;99.90;;;;;;5073923;28;20261;-75
2023/09/08 12:44:12;;;;;;;13.90;8.30;;;26.30;99.90;;;;;;5073299;28;20382;-76
2023/09/08 12:47:03;;;;;;;12.38;7.30;;;26.40;99.90;;;;;;5069209;28;20602;-76
2023/09/08 12:49:54;;;;;;;9.90;8.07;;;26.10;99.90;;;;;;5076458;28;21233;-76
2023/09/08 12:52:43;;;;;;;9.82;8.00;;;26.10;99.90;;;;;;5080538;28;20314;-76
2023/09/08 12:55:32;;;;;;;12.35;7.53;;;26.00;99.90;;;;;;5077205;28;20234;-76
2023/09/08 12:58:21;;;;;;;13.25;7.93;;;26.00;99.90;;;;;;5083515;28;20248;-76
2023/09/08 13:01:10;;;;;;;9.15;7.90;;;25.90;99.90;;;;;;5066260;28;20223;-77
2023/09/08 13:04:01;;;;;;;11.93;9.00;;;26.00;99.90;;;;;;5075808;28;20225;-76
2023/09/08 13:06:50;;;;;;;11.10;7.90;;;25.90;99.90;;;;;;5062166;28;20231;-75
2023/09/08 13:09:39;;;;;;;11.30;7.63;;;25.90;99.90;;;;;;5082507;28;20220;-76
2023/09/08 13:12:28;;;;;;;11.02;7.63;;;25.90;99.90;;;;;;5078841;28;20626;-76
2023/09/08 13:15:17;;;;;;;10.02;7.35;;;25.80;99.90;;;;;;5071924;28;20225;-77
2023/09/08 13:18:06;;;;;;;13.38;7.35;;;25.90;99.90;;;;;;5062311;28;20631;-78
2023/09/08 13:20:56;;;;;;;14.05;7.10;;;25.90;99.90;;;;;;5069038;28;20498;-75
2023/09/08 13:23:45;;;;;;;10.20;6.55;;;25.90;99.90;;;;;;5065188;28;20223;-76
2023/09/08 13:26:34;;;;;;;9.55;7.00;;;25.90;99.90;;;;;;5078505;28;20362;-75
2023/09/08 13:29:23;;;;;;;8.73;7.43;;;25.90;99.90;;;;;;5078185;28;20681;-76
2023/09/08 13:32:12;;;;;;;8.82;7.07;;;25.80;99.90;;;;;;5076134;28;20639;-76
2023/09/08 13:35:01;;;;;;;10.88;7.43;;;25.70;99.90;;;;;;5067980;28;20221;-78
2023/09/08 13:37:51;;;;;;;12.90;7.50;;;25.70;99.90;;;;;;5071963;28;20361;-76
2023/09/08 13:40:41;;;;;;;11.15;7.03;;;25.80;99.90;;;;;;5057547;28;20255;-76
2023/09/08 13:43:29;;;;;;;10.40;7.53;;;25.80;99.90;;;;;;5062909;28;20216;-77
2023/09/08 13:46:18;;;;;;;10.77;6.68;;;25.70;99.90;;;;;;5053470;28;20232;-76
2023/09/08 13:49:07;;;;;;;13.98;6.90;;;25.70;99.90;;;;;;5058499;28;20227;-76
2023/09/08 13:51:58;;;;;;;8.40;7.32;;;25.70;99.90;;;;;;5042573;28;20298;-75
2023/09/08 13:54:50;;;;;;;12.18;7.13;;;25.60;99.90;;;;;;5038457;28;20385;-75
2023/09/08 13:57:59;;;;;;;9.15;7.55;;;25.50;99.90;;;;;;5052092;28;20254;-77
2023/09/08 14:00:50;;;;;;;9.40;7.55;;;25.50;99.90;;;;;;5057201;28;20252;-76
2023/09/08 14:03:41;;;;;;;9.63;7.28;;;25.50;99.90;;;;;;5061227;28;20715;-75
2023/09/08 14:06:50;;;;;;;11.43;7.30;;;25.40;99.90;;;;;;5063959;28;20235;-76
2023/09/08 14:09:47;;;;;;;9.40;6.88;;;25.40;99.90;;;;;;5055470;28;20583;-76
2023/09/08 14:12:40;;;;;;;10.57;7.97;;;25.40;99.90;;;;;;5059400;28;20289;-76
2023/09/08 14:15:29;;;;;;;8.10;7.00;;;25.40;99.90;;;;;;5062514;28;20227;-76
2023/09/08 14:18:18;;;;;;;10.77;7.22;;;25.50;98.20;;;;;;5062729;28;20254;-76
2023/09/08 14:21:08;;;;;;;10.18;7.15;;;25.50;99.90;;;;;;5037554;28;20233;-76
2023/09/08 14:23:59;;;;;;;8.13;6.95;;;25.40;99.90;;;;;;5060356;28;20247;-76
2023/09/08 14:26:47;;;;;;;10.55;7.03;;;25.40;99.90;;;;;;5057397;28;20232;-76
2023/09/08 14:29:38;;;;;;;9.27;6.90;;;25.40;99.90;;;;;;5055826;28;20235;-77
2023/09/08 14:32:27;;;;;;;8.00;6.85;;;25.40;99.90;;;;;;5036830;28;20235;-76
2023/09/08 14:35:16;;;;;;;9.82;6.55;;;25.40;99.90;;;;;;5041849;28;20220;-76
2023/09/08 14:38:05;;;;;;;10.20;6.57;;;25.40;99.90;;;;;;5053597;28;20310;-76
2023/09/08 14:40:59;;;;;;;12.95;6.90;;;25.40;99.90;;;;;;5037912;28;20227;-77